Time;durP1;ratioP1;P1;durP2;ratioP2;P2;SDS_P1;SDS_P2;PMS_P1;PMS_P2;Temp;Humidity;BMP_temperature;BMP_pressure;BME280_temperature;BME280_humidity;BME280_pressure;Samples;Min_cycle;Max_cycle;Signal;HPM_P1;HPM_P2
2022/09/16 00:00:41;;;;;;;;;;;17.90;99.90;;;;;;4212706;28;19977;-60
2022/09/16 00:02:43;;;;;;;;;;;17.90;99.90;;;;;;4212834;28;20121;-60
2022/09/16 00:04:44;;;;;;;;;;;17.80;99.90;;;;;;4212358;28;20348;-60
2022/09/16 00:06:46;;;;;;;;;;;17.90;99.90;;;;;;4212812;28;20001;-59
2022/09/16 00:08:48;;;;;;;;;;;17.80;99.90;;;;;;4212738;28;19931;-60
2022/09/16 00:10:51;;;;;;;;;;;17.80;99.90;;;;;;4209354;28;19936;-60
2022/09/16 00:12:52;;;;;;;;;;;17.80;99.90;;;;;;4196058;28;19935;-60
2022/09/16 00:14:54;;;;;;;;;;;17.60;99.90;;;;;;4226818;28;19927;-60
2022/09/16 00:16:56;;;;;;;;;;;17.60;99.90;;;;;;4229687;28;20248;-61
2022/09/16 00:18:59;;;;;;;;;;;17.50;99.90;;;;;;4226297;28;19939;-61
2022/09/16 00:21:05;;;;;;;;;;;17.60;99.90;;;;;;4212675;28;20299;-60
2022/09/16 00:23:07;;;;;;;;;;;17.70;99.90;;;;;;4212596;28;19971;-60
2022/09/16 00:25:09;;;;;;;;;;;17.80;99.90;;;;;;4212515;28;19928;-60
2022/09/16 00:27:10;;;;;;;;;;;17.80;99.90;;;;;;4212476;28;19932;-60
2022/09/16 00:29:12;;;;;;;;;;;17.70;99.90;;;;;;4212135;28;19934;-59
2022/09/16 00:31:14;;;;;;;;;;;17.60;99.90;;;;;;4212689;28;19931;-60
2022/09/16 00:33:17;;;;;;;;;;;17.60;99.90;;;;;;4212080;28;20556;-60
2022/09/16 00:35:19;;;;;;;;;;;17.70;99.90;;;;;;4212130;28;20376;-61
2022/09/16 00:37:21;;;;;;;;;;;17.60;99.90;;;;;;4212482;28;20379;-60
2022/09/16 00:39:22;;;;;;;;;;;17.50;99.90;;;;;;4211474;28;20100;-60
2022/09/16 00:41:25;;;;;;;;;;;17.40;99.90;;;;;;4213877;28;20329;-60
2022/09/16 00:43:27;;;;;;;;;;;17.20;99.90;;;;;;4215789;28;19939;-59
2022/09/16 00:45:30;;;;;;;;;;;17.10;99.90;;;;;;4215926;28;20464;-60
2022/09/16 00:47:40;;;;;;;;;;;17.20;99.90;;;;;;4215196;28;19924;-60
2022/09/16 00:49:42;;;;;;;;;;;17.30;99.90;;;;;;4215884;28;19924;-60
2022/09/16 00:51:46;;;;;;;;;;;17.20;99.90;;;;;;4215800;28;19928;-60
2022/09/16 00:53:56;;;;;;;;;;;17.00;99.90;;;;;;4215661;28;19924;-60
2022/09/16 00:55:59;;;;;;;;;;;17.10;99.90;;;;;;4215278;28;19928;-60
2022/09/16 00:58:04;;;;;;;;;;;17.00;99.90;;;;;;4215649;28;20037;-61
2022/09/16 01:00:12;;;;;;;;;;;17.00;99.90;;;;;;4215745;28;20076;-59
2022/09/16 01:02:17;;;;;;;;;;;16.90;99.90;;;;;;4215798;28;19924;-60
2022/09/16 01:04:28;;;;;;;;;;;17.00;99.90;;;;;;4215303;28;19940;-60
2022/09/16 01:06:31;;;;;;;;;;;16.90;99.90;;;;;;4215314;28;19928;-60
2022/09/16 01:08:33;;;;;;;;;;;16.90;99.90;;;;;;4215568;28;19947;-60
2022/09/16 01:10:34;;;;;;;;;;;17.10;99.90;;;;;;4217554;28;19924;-60
2022/09/16 01:12:37;;;;;;;;;;;17.20;99.90;;;;;;4215776;28;20371;-60
2022/09/16 01:14:56;;;;;;;;;;;17.20;99.90;;;;;;4215082;28;19936;-60
2022/09/16 01:17:01;;;;;;;;;;;17.20;99.90;;;;;;4215054;28;19928;-59
2022/09/16 01:19:19;;;;;;;;;;;17.10;99.90;;;;;;4215220;28;19924;-60
2022/09/16 01:21:34;;;;;;;;;;;17.20;99.90;;;;;;4198816;28;19935;-60
2022/09/16 01:23:35;;;;;;;;;;;17.10;99.90;;;;;;4207469;28;19978;-60
2022/09/16 01:25:56;;;;;;;;;;;16.90;99.90;;;;;;4215141;28;19971;-60
2022/09/16 01:28:04;;;;;;;;;;;16.80;99.90;;;;;;4215327;28;19932;-59
2022/09/16 01:30:13;;;;;;;;;;;16.60;99.90;;;;;;4215199;28;19928;-60
2022/09/16 01:32:34;;;;;;;;;;;16.60;99.90;;;;;;4215104;28;19928;-60
2022/09/16 01:34:56;;;;;;;;;;;16.50;99.90;;;;;;4214855;28;19932;-60
2022/09/16 01:37:07;;;;;;;;;;;16.40;99.90;;;;;;4214779;28;19932;-60
2022/09/16 01:39:12;;;;;;;;;;;16.40;99.90;;;;;;4214379;28;19971;-60
2022/09/16 01:41:20;;;;;;;;;;;16.40;99.90;;;;;;4215151;28;19924;-60
2022/09/16 01:43:31;;;;;;;;;;;16.50;99.90;;;;;;4214993;28;20380;-60
2022/09/16 01:45:36;;;;;;;;;;;16.50;99.90;;;;;;4214969;28;19924;-60
2022/09/16 01:47:57;;;;;;;;;;;16.40;99.90;;;;;;4214748;28;19973;-59
2022/09/16 01:50:08;;;;;;;;;;;16.40;99.90;;;;;;4197956;28;19978;-60
2022/09/16 01:52:28;;;;;;;;;;;16.50;99.90;;;;;;4206336;28;19931;-60
2022/09/16 01:54:30;;;;;;;;;;;16.50;99.90;;;;;;4214084;28;19924;-60
2022/09/16 01:57:07;;;;;;;;;;;16.50;99.90;;;;;;4214534;28;19924;-60
2022/09/16 01:59:11;;;;;;;;;;;16.60;99.90;;;;;;4178899;28;19955;-59
2022/09/16 02:01:17;;;;;;;;;;;16.50;99.90;;;;;;4179158;28;19929;-60
2022/09/16 02:03:22;;;;;;;;;;;16.50;99.90;;;;;;4179251;28;19924;-60
2022/09/16 02:05:27;;;;;;;;;;;16.40;99.90;;;;;;4179055;28;20357;-60
2022/09/16 02:07:32;;;;;;;;;;;16.40;99.90;;;;;;4191495;28;19952;-60
2022/09/16 02:09:40;;;;;;;;;;;16.40;99.90;;;;;;4164509;28;19932;-60
2022/09/16 02:11:44;;;;;;;;;;;16.40;99.90;;;;;;4174624;28;19929;-59
2022/09/16 02:13:59;;;;;;;;;;;16.50;99.90;;;;;;4178946;28;19928;-60
2022/09/16 02:16:03;;;;;;;;;;;16.50;99.90;;;;;;4179097;28;19983;-59
2022/09/16 02:18:09;;;;;;;;;;;16.50;99.90;;;;;;4179144;28;20126;-60
2022/09/16 02:20:17;;;;;;;;;;;16.50;99.90;;;;;;4178851;28;20378;-60
2022/09/16 02:22:24;;;;;;;;;;;16.40;99.90;;;;;;4179124;28;19963;-60
2022/09/16 02:24:28;;;;;;;;;;;16.40;99.90;;;;;;4178027;28;20043;-60
2022/09/16 02:26:34;;;;;;;;;;;16.30;99.90;;;;;;4176319;28;20518;-60
2022/09/16 02:28:38;;;;;;;;;;;16.30;99.90;;;;;;4162357;28;19932;-59
2022/09/16 02:30:42;;;;;;;;;;;16.30;99.90;;;;;;4172796;28;19929;-61
2022/09/16 02:32:49;;;;;;;;;;;16.40;99.90;;;;;;4182724;28;20296;-60
2022/09/16 02:34:53;;;;;;;;;;;16.30;99.90;;;;;;4214163;28;20349;-58
2022/09/16 02:36:57;;;;;;;;;;;16.20;99.90;;;;;;4214133;28;20393;-60
2022/09/16 02:39:06;;;;;;;;;;;16.20;99.90;;;;;;4212979;28;19929;-59
2022/09/16 02:41:13;;;;;;;;;;;16.20;99.90;;;;;;4214173;28;19939;-60
2022/09/16 02:43:15;;;;;;;;;;;16.20;99.90;;;;;;4214122;28;19931;-60
2022/09/16 02:45:17;;;;;;;;;;;16.20;99.90;;;;;;4214368;28;19924;-60
2022/09/16 02:47:45;;;;;;;;;;;16.20;99.90;;;;;;4213254;28;20326;-59
2022/09/16 02:49:47;;;;;;;;;;;16.20;99.90;;;;;;4211689;28;20387;-60
2022/09/16 02:52:09;;;;;;;;;;;16.10;99.90;;;;;;4213992;28;19928;-59
2022/09/16 02:54:17;;;;;;;;;;;16.20;99.90;;;;;;4189632;28;20407;-60
2022/09/16 02:56:19;;;;;;;;;;;16.00;99.90;;;;;;4209019;28;19928;-59
2022/09/16 02:58:21;;;;;;;;;;;15.90;99.90;;;;;;4213681;28;20439;-61
2022/09/16 03:00:24;;;;;;;;;;;15.90;99.90;;;;;;4213719;28;19932;-60
2022/09/16 03:02:26;;;;;;;;;;;15.90;99.90;;;;;;4218830;28;19924;-60
2022/09/16 03:04:28;;;;;;;;;;;16.00;99.90;;;;;;4230614;27;19932;-59
2022/09/16 03:06:34;;;;;;;;;;;16.00;99.90;;;;;;4196998;28;19936;-60
2022/09/16 03:08:37;;;;;;;;;;;16.00;99.90;;;;;;4212317;28;19924;-60
2022/09/16 03:10:42;;;;;;;;;;;16.00;99.90;;;;;;4213473;28;19970;-58
2022/09/16 03:12:56;;;;;;;;;;;16.00;99.90;;;;;;4213832;28;19928;-60
2022/09/16 03:15:03;;;;;;;;;;;16.00;99.90;;;;;;4213629;28;19932;-60
2022/09/16 03:17:08;;;;;;;;;;;15.90;99.90;;;;;;4213350;28;19966;-60
2022/09/16 03:19:19;;;;;;;;;;;15.70;99.90;;;;;;4213602;28;19966;-60
2022/09/16 03:21:44;;;;;;;;;;;15.70;99.90;;;;;;4205556;28;19929;-61
2022/09/16 03:24:05;;;;;;;;;;;15.80;99.90;;;;;;4196784;28;20094;-60
2022/09/16 03:26:16;;;;;;;;;;;15.70;99.90;;;;;;4196477;28;20402;-60
2022/09/16 03:28:22;;;;;;;;;;;15.70;99.90;;;;;;4196753;28;19928;-60
2022/09/16 03:30:24;;;;;;;;;;;15.70;99.90;;;;;;4196515;28;19963;-60
2022/09/16 03:32:29;;;;;;;;;;;15.70;99.90;;;;;;4196499;28;19937;-60
2022/09/16 03:34:38;;;;;;;;;;;15.60;99.90;;;;;;4196648;28;19924;-60
2022/09/16 03:36:43;;;;;;;;;;;15.70;99.90;;;;;;4196474;28;19968;-60
2022/09/16 03:38:45;;;;;;;;;;;15.70;99.90;;;;;;4196601;28;19967;-60
2022/09/16 03:40:48;;;;;;;;;;;15.70;99.90;;;;;;4208315;28;20258;-60
2022/09/16 03:42:49;;;;;;;;;;;15.70;99.90;;;;;;4200286;28;19963;-60
2022/09/16 03:44:52;;;;;;;;;;;15.70;99.90;;;;;;4199318;28;19929;-59
2022/09/16 03:46:54;;;;;;;;;;;15.60;99.90;;;;;;4208719;28;19939;-60
2022/09/16 03:48:55;;;;;;;;;;;15.30;99.90;;;;;;4213217;28;19947;-59
2022/09/16 03:50:57;;;;;;;;;;;15.20;99.90;;;;;;4213006;28;19927;-60
2022/09/16 03:52:59;;;;;;;;;;;15.10;99.90;;;;;;4212867;28;19928;-58
2022/09/16 03:55:01;;;;;;;;;;;15.10;99.90;;;;;;4212820;28;19925;-59
2022/09/16 03:57:03;;;;;;;;;;;15.30;99.90;;;;;;4212853;28;19935;-60
2022/09/16 03:59:05;;;;;;;;;;;15.30;99.90;;;;;;4212677;28;19947;-60
2022/09/16 04:01:07;;;;;;;;;;;15.40;99.90;;;;;;4211886;28;19928;-60
2022/09/16 04:03:09;;;;;;;;;;;15.40;99.90;;;;;;4213055;28;19928;-58
2022/09/16 04:05:11;;;;;;;;;;;15.40;99.90;;;;;;4212899;28;20345;-60
2022/09/16 04:07:13;;;;;;;;;;;15.40;99.90;;;;;;4212520;28;20437;-60
2022/09/16 04:09:15;;;;;;;;;;;15.40;99.90;;;;;;4212877;28;19924;-60
2022/09/16 04:11:17;;;;;;;;;;;15.40;99.90;;;;;;4212820;28;19938;-60
2022/09/16 04:13:19;;;;;;;;;;;15.40;99.90;;;;;;4207373;28;20417;-59
2022/09/16 04:15:21;;;;;;;;;;;15.30;99.90;;;;;;4195694;28;20265;-60
2022/09/16 04:17:23;;;;;;;;;;;15.10;99.90;;;;;;4201680;28;19928;-59
2022/09/16 04:19:25;;;;;;;;;;;15.10;99.90;;;;;;4212401;28;20556;-60
2022/09/16 04:21:28;;;;;;;;;;;15.10;99.90;;;;;;4212118;28;20461;-59
2022/09/16 04:23:30;;;;;;;;;;;15.10;99.90;;;;;;4211995;28;20384;-60
2022/09/16 04:25:32;;;;;;;;;;;15.10;99.90;;;;;;4212379;28;19924;-60
2022/09/16 04:27:34;;;;;;;;;;;15.10;99.90;;;;;;4211274;28;19932;-59
2022/09/16 04:29:36;;;;;;;;;;;15.00;99.90;;;;;;4212504;28;19927;-60
2022/09/16 04:31:38;;;;;;;;;;;14.90;99.90;;;;;;4211350;28;19985;-60
2022/09/16 04:33:40;;;;;;;;;;;14.90;99.90;;;;;;4212655;28;20072;-60
2022/09/16 04:35:42;;;;;;;;;;;14.90;99.90;;;;;;4212108;28;19974;-60
2022/09/16 04:37:44;;;;;;;;;;;15.00;99.90;;;;;;4212193;28;20272;-60
2022/09/16 04:39:46;;;;;;;;;;;14.90;99.90;;;;;;4195875;28;19928;-60
2022/09/16 04:41:48;;;;;;;;;;;14.90;99.90;;;;;;4195706;28;19932;-60
2022/09/16 04:43:51;;;;;;;;;;;15.00;99.90;;;;;;4209153;28;19928;-59
2022/09/16 04:45:53;;;;;;;;;;;14.80;99.90;;;;;;4212323;28;20383;-60
2022/09/16 04:47:56;;;;;;;;;;;14.70;99.90;;;;;;4211367;28;19931;-60
2022/09/16 04:49:58;;;;;;;;;;;14.70;99.90;;;;;;4212120;28;20342;-60
2022/09/16 04:52:00;;;;;;;;;;;14.80;99.90;;;;;;4212239;28;19928;-59
2022/09/16 04:54:02;;;;;;;;;;;14.80;99.90;;;;;;4211901;28;19970;-60
2022/09/16 04:56:04;;;;;;;;;;;14.80;99.90;;;;;;4212416;28;19924;-60
2022/09/16 04:58:06;;;;;;;;;;;14.80;99.90;;;;;;4211962;28;19932;-60
2022/09/16 05:00:08;;;;;;;;;;;14.70;99.90;;;;;;4195876;28;19932;-60
2022/09/16 05:02:10;;;;;;;;;;;14.70;99.90;;;;;;4195717;28;19967;-60
2022/09/16 05:04:12;;;;;;;;;;;14.70;99.90;;;;;;4195552;28;19929;-60
2022/09/16 05:06:15;;;;;;;;;;;14.70;99.90;;;;;;4195454;28;19932;-60
2022/09/16 05:08:21;;;;;;;;;;;14.80;99.90;;;;;;4195590;28;20444;-59
2022/09/16 05:10:22;;;;;;;;;;;14.80;99.90;;;;;;4195360;28;19925;-60
2022/09/16 05:12:24;;;;;;;;;;;14.80;99.90;;;;;;4195748;28;19924;-60
2022/09/16 05:14:26;;;;;;;;;;;14.70;99.90;;;;;;4206841;28;19981;-60
2022/09/16 05:16:28;;;;;;;;;;;14.60;99.90;;;;;;4212185;28;19971;-59
2022/09/16 05:18:30;;;;;;;;;;;14.70;99.90;;;;;;4211449;28;19928;-59
2022/09/16 05:20:32;;;;;;;;;;;14.90;99.90;;;;;;4211881;28;19955;-60
2022/09/16 05:22:34;;;;;;;;;;;14.80;99.90;;;;;;4212242;28;19931;-60
2022/09/16 05:24:36;;;;;;;;;;;14.60;99.90;;;;;;4212210;28;19931;-60
2022/09/16 05:26:39;;;;;;;;;;;14.60;99.90;;;;;;4211988;28;19928;-61
2022/09/16 05:28:40;;;;;;;;;;;14.60;99.90;;;;;;4214068;28;19928;-60
2022/09/16 05:30:42;;;;;;;;;;;14.70;99.90;;;;;;4215291;28;20010;-60
2022/09/16 05:32:44;;;;;;;;;;;14.70;99.90;;;;;;4208455;28;19937;-60
2022/09/16 05:34:46;;;;;;;;;;;14.80;99.90;;;;;;4200211;28;20026;-60
2022/09/16 05:36:49;;;;;;;;;;;14.80;99.90;;;;;;4198366;28;19932;-60
2022/09/16 05:38:51;;;;;;;;;;;14.80;99.90;;;;;;4198327;28;19932;-60
2022/09/16 05:41:13;;;;;;;;;;;14.90;99.90;;;;;;4197962;28;19974;-60
2022/09/16 05:43:15;;;;;;;;;;;14.90;99.90;;;;;;4199372;28;19925;-60
2022/09/16 05:45:16;;;;;;;;;;;14.90;99.90;;;;;;4213405;28;19924;-60
2022/09/16 05:47:23;;;;;;;;;;;14.80;99.90;;;;;;4214202;28;19931;-60
2022/09/16 05:49:25;;;;;;;;;;;14.80;99.90;;;;;;4214845;28;20037;-60
2022/09/16 05:51:27;;;;;;;;;;;14.90;99.90;;;;;;4222648;28;19924;-60
2022/09/16 05:53:30;;;;;;;;;;;14.90;99.90;;;;;;4231623;27;19924;-60
2022/09/16 05:55:32;;;;;;;;;;;14.90;99.90;;;;;;4218483;28;19938;-60
2022/09/16 05:57:34;;;;;;;;;;;14.90;99.90;;;;;;4197511;28;19928;-60
2022/09/16 05:59:36;;;;;;;;;;;14.90;99.90;;;;;;4198167;28;19925;-61
2022/09/16 06:01:38;;;;;;;;;;;14.90;99.90;;;;;;4205288;28;19928;-60
2022/09/16 06:03:41;;;;;;;;;;;14.90;99.90;;;;;;4214788;28;19928;-60
2022/09/16 06:05:44;;;;;;;;;;;14.90;99.90;;;;;;4214780;28;19924;-60
2022/09/16 06:07:46;;;;;;;;;;;15.00;99.90;;;;;;4214375;28;19998;-60
2022/09/16 06:09:48;;;;;;;;;;;15.10;99.90;;;;;;4214718;28;19932;-60
2022/09/16 06:11:51;;;;;;;;;;;15.10;99.90;;;;;;4214563;28;19928;-60
2022/09/16 06:13:58;;;;;;;;;;;15.30;99.90;;;;;;4214229;28;19924;-60
2022/09/16 06:16:00;;;;;;;;;;;15.50;99.90;;;;;;4215019;28;20265;-60
2022/09/16 06:18:02;;;;;;;;;;;15.60;99.90;;;;;;4214490;28;19931;-61
2022/09/16 06:20:12;;;;;;;;;;;15.60;99.90;;;;;;4213846;28;19924;-61
2022/09/16 06:22:14;;;;;;;;;;;15.70;99.90;;;;;;4214262;28;20017;-60
2022/09/16 06:24:16;;;;;;;;;;;15.80;99.90;;;;;;4214251;28;19931;-61
2022/09/16 06:26:20;;;;;;;;;;;16.00;99.90;;;;;;4214366;28;19932;-59
2022/09/16 06:28:22;;;;;;;;;;;16.00;99.90;;;;;;4212775;28;19924;-58
2022/09/16 06:30:24;;;;;;;;;;;16.10;99.90;;;;;;4210660;28;19947;-60
2022/09/16 06:32:31;;;;;;;;;;;16.30;99.90;;;;;;4197850;28;20039;-59
2022/09/16 06:34:32;;;;;;;;;;;16.30;99.90;;;;;;4212818;28;20375;-60
2022/09/16 06:36:35;;;;;;;;;;;16.50;99.90;;;;;;4213946;28;19924;-60
2022/09/16 06:38:39;;;;;;;;;;;16.50;99.90;;;;;;4213772;28;19928;-61
2022/09/16 06:40:41;;;;;;;;;;;16.60;99.90;;;;;;4213956;28;19927;-60
2022/09/16 06:42:43;;;;;;;;;;;16.70;99.90;;;;;;4214054;28;19924;-60
2022/09/16 06:44:45;;;;;;;;;;;16.80;99.90;;;;;;4213311;28;19928;-60
2022/09/16 06:46:47;;;;;;;;;;;16.80;99.90;;;;;;4213461;28;19935;-60
2022/09/16 06:48:50;;;;;;;;;;;16.90;99.90;;;;;;4198875;28;19932;-59
2022/09/16 06:50:59;;;;;;;;;;;17.00;99.90;;;;;;4214044;28;19928;-60
2022/09/16 06:53:01;;;;;;;;;;;17.30;99.90;;;;;;4213336;28;20329;-61
2022/09/16 06:55:03;;;;;;;;;;;17.50;99.90;;;;;;4213910;28;19924;-60
2022/09/16 06:57:23;;;;;;;;;;;17.60;99.90;;;;;;4210798;28;19931;-60
2022/09/16 06:59:43;;;;;;;;;;;17.70;99.90;;;;;;4206913;28;20395;-60
2022/09/16 07:02:04;;;;;;;;;;;17.80;99.90;;;;;;4205136;28;19947;-60
2022/09/16 07:04:25;;;;;;;;;;;18.10;99.90;;;;;;4203970;28;20017;-60
2022/09/16 07:06:45;;;;;;;;;;;18.00;99.90;;;;;;4203768;28;20010;-59
2022/09/16 07:09:26;;;;;;;;;;;18.00;99.90;;;;;;4210474;28;19935;-60
2022/09/16 07:11:46;;;;;;;;;;;18.10;99.90;;;;;;4204936;28;19939;-60
2022/09/16 07:14:08;;;;;;;;;;;18.20;99.90;;;;;;4208060;28;19978;-60
2022/09/16 07:16:28;;;;;;;;;;;18.40;99.90;;;;;;4196992;28;19981;-60
2022/09/16 07:18:53;;;;;;;;;;;18.70;99.90;;;;;;4207089;28;20032;-59
2022/09/16 07:21:19;;;;;;;;;;;19.10;99.90;;;;;;4202948;28;20017;-60
2022/09/16 07:23:39;;;;;;;;;;;19.20;99.90;;;;;;4202086;28;19951;-60
2022/09/16 07:26:08;;;;;;;;;;;19.10;99.90;;;;;;4200481;28;19931;-60
2022/09/16 07:28:28;;;;;;;;;;;19.40;99.90;;;;;;4204135;28;19970;-60
2022/09/16 07:30:49;;;;;;;;;;;19.60;99.90;;;;;;4202838;28;19939;-60
2022/09/16 07:33:09;;;;;;;;;;;19.70;99.90;;;;;;4211247;28;19939;-60
2022/09/16 07:35:30;;;;;;;;;;;19.80;99.90;;;;;;4196399;28;19931;-60
2022/09/16 07:37:50;;;;;;;;;;;20.00;99.90;;;;;;4208137;28;19931;-60
2022/09/16 07:40:12;;;;;;;;;;;20.30;99.90;;;;;;4199783;28;19970;-60
2022/09/16 07:42:32;;;;;;;;;;;20.50;99.90;;;;;;4196561;28;19932;-60
2022/09/16 07:44:53;;;;;;;;;;;21.10;99.90;;;;;;4227098;28;20436;-60
2022/09/16 07:47:13;;;;;;;;;;;21.80;99.90;;;;;;4206009;28;19931;-60
2022/09/16 07:49:37;;;;;;;;;;;21.90;99.90;;;;;;4212611;28;19954;-60
2022/09/16 07:51:58;;;;;;;;;;;21.70;99.90;;;;;;4211494;28;19941;-60
2022/09/16 07:54:19;;;;;;;;;;;21.70;99.90;;;;;;4205167;28;20047;-60
2022/09/16 07:56:40;;;;;;;;;;;21.90;99.90;;;;;;4204824;28;19958;-60
2022/09/16 07:59:01;;;;;;;;;;;22.10;99.90;;;;;;4212779;28;19935;-60
2022/09/16 08:01:21;;;;;;;;;;;22.30;99.90;;;;;;4212719;28;20341;-60
2022/09/16 08:03:42;;;;;;;;;;;22.40;99.90;;;;;;4212839;28;19931;-61
2022/09/16 08:06:04;;;;;;;;;;;22.60;99.90;;;;;;4212844;28;19951;-60
2022/09/16 08:08:24;;;;;;;;;;;23.20;99.90;;;;;;4206208;28;19948;-61
2022/09/16 08:10:52;;;;;;;;;;;23.30;99.90;;;;;;4212840;28;19943;-60
2022/09/16 08:13:12;;;;;;;;;;;23.60;99.90;;;;;;4212609;28;19935;-61
2022/09/16 08:15:32;;;;;;;;;;;23.80;99.90;;;;;;4204040;28;19934;-61
2022/09/16 08:17:53;;;;;;;;;;;23.90;99.90;;;;;;4212446;28;19989;-61
2022/09/16 08:20:13;;;;;;;;;;;24.20;99.90;;;;;;4196064;28;19931;-61
2022/09/16 08:22:34;;;;;;;;;;;24.50;99.90;;;;;;4213252;28;19946;-60
2022/09/16 08:24:54;;;;;;;;;;;24.60;99.90;;;;;;4212431;28;20035;-61
2022/09/16 08:27:15;;;;;;;;;;;25.00;99.90;;;;;;4212545;28;19947;-61
2022/09/16 08:29:35;;;;;;;;;;;25.00;99.90;;;;;;4204354;28;19932;-61
2022/09/16 08:31:56;;;;;;;;;;;24.60;99.90;;;;;;4211929;28;19935;-60
2022/09/16 08:34:16;;;;;;;;;;;24.60;99.90;;;;;;4211397;28;19931;-60
2022/09/16 08:36:37;;;;;;;;;;;24.80;99.90;;;;;;4212293;28;19935;-61
2022/09/16 08:38:57;;;;;;;;;;;24.80;99.90;;;;;;4211879;28;19930;-61
2022/09/16 08:41:29;;;;;;;;;;;24.80;99.90;;;;;;4198984;28;19932;-60
2022/09/16 08:44:01;;;;;;;;;;;25.00;99.90;;;;;;4198694;28;19939;-60
2022/09/16 08:46:46;;;;;;;;;;;25.00;99.90;;;;;;4212436;28;20520;-61
2022/09/16 08:49:15;;;;;;;;;;;25.00;99.90;;;;;;4195357;28;20391;-61
2022/09/16 08:51:36;;;;;;;;;;;25.40;99.90;;;;;;4210283;28;20414;-61
2022/09/16 08:53:58;;;;;;;;;;;25.50;99.90;;;;;;4212049;28;19931;-60
2022/09/16 08:56:21;;;;;;;;;;;25.70;99.90;;;;;;4211639;28;20125;-61
2022/09/16 08:58:43;;;;;;;;;;;25.90;99.90;;;;;;4211183;28;20477;-61
2022/09/16 09:01:10;;;;;;;;;;;26.10;99.90;;;;;;4211898;28;19974;-61
2022/09/16 09:03:35;;;;;;;;;;;26.00;99.90;;;;;;4215425;28;20031;-61
2022/09/16 09:05:56;;;;;;;;;;;26.20;99.90;;;;;;4215440;28;19973;-61
2022/09/16 09:08:27;;;;;;;;;;;26.50;99.90;;;;;;4215319;28;19931;-61
2022/09/16 09:10:49;;;;;;;;;;;26.40;99.90;;;;;;4215092;28;19989;-61
2022/09/16 09:13:33;;;;;;;;;;;26.70;99.90;;;;;;4215652;28;19935;-61
2022/09/16 09:15:57;;;;;;;;;;;26.70;99.90;;;;;;4215727;28;19935;-61
2022/09/16 09:18:34;;;;;;;;;;;26.70;99.90;;;;;;4215341;28;19989;-61
2022/09/16 09:21:18;;;;;;;;;;;26.60;99.90;;;;;;4198889;28;19940;-61
2022/09/16 09:23:38;;;;;;;;;;;26.10;99.90;;;;;;4214257;28;19931;-61
2022/09/16 09:26:04;;;;;;;;;;;26.40;99.90;;;;;;4215112;28;19935;-61
2022/09/16 09:28:47;;;;;;;;;;;26.20;99.90;;;;;;4212401;28;20037;-60
2022/09/16 09:31:13;;;;;;;;;;;25.80;99.90;;;;;;4194261;28;19931;-61
2022/09/16 09:33:33;;;;;;;;;;;26.30;99.90;;;;;;4198167;28;19936;-61
2022/09/16 09:36:11;;;;;;;;;;;26.30;99.90;;;;;;4209990;28;19931;-61
2022/09/16 09:38:49;;;;;;;;;;;26.40;99.90;;;;;;4211695;28;19989;-61
2022/09/16 09:41:13;;;;;;;;;;;26.10;99.90;;;;;;4208295;28;20118;-61
2022/09/16 09:43:37;;;;;;;;;;;26.10;99.90;;;;;;4215149;28;20414;-61
2022/09/16 09:46:06;;;;;;;;;;;26.30;99.90;;;;;;4214284;28;20287;-61
2022/09/16 09:48:38;;;;;;;;;;;26.00;99.90;;;;;;4206366;28;19931;-60
2022/09/16 09:51:01;;;;;;;;;;;25.80;99.90;;;;;;4204043;28;20444;-61
2022/09/16 09:53:34;;;;;;;;;;;26.00;99.90;;;;;;4213461;28;19989;-61
2022/09/16 09:56:03;;;;;;;;;;;26.40;99.90;;;;;;4200892;28;20407;-60
2022/09/16 09:58:23;;;;;;;;;;;26.70;99.90;;;;;;4207081;28;19981;-61
2022/09/16 10:00:44;;;;;;;;;;;27.00;99.40;;;;;;4213146;28;20031;-61
2022/09/16 10:03:06;;;;;;;;;;;26.80;99.90;;;;;;4211034;28;19943;-60
2022/09/16 10:05:27;;;;;;;;;;;27.10;99.90;;;;;;4208401;28;20034;-61
2022/09/16 10:07:48;;;;;;;;;;;27.30;99.90;;;;;;4211438;28;20011;-61
2022/09/16 10:10:18;;;;;;;;;;;27.60;99.90;;;;;;4211989;28;20685;-61
2022/09/16 10:12:38;;;;;;;;;;;28.10;99.90;;;;;;4211335;28;19934;-61
2022/09/16 10:14:59;;;;;;;;;;;28.20;99.60;;;;;;4205449;28;20013;-61
2022/09/16 10:17:20;;;;;;;;;;;28.00;98.20;;;;;;4205197;28;20284;-61
2022/09/16 10:19:57;;;;;;;;;;;27.90;98.10;;;;;;4212261;28;20445;-60
2022/09/16 10:22:22;;;;;;;;;;;27.50;99.10;;;;;;4200311;28;20010;-61
2022/09/16 10:24:43;;;;;;;;;;;27.10;98.70;;;;;;4197873;28;19974;-61
2022/09/16 10:27:21;;;;;;;;;;;27.30;99.50;;;;;;4209896;28;19934;-61
2022/09/16 10:29:42;;;;;;;;;;;27.40;98.90;;;;;;4210292;28;20023;-61
2022/09/16 10:32:05;;;;;;;;;;;27.30;98.50;;;;;;4198781;28;19931;-62
2022/09/16 10:34:28;;;;;;;;;;;27.20;98.70;;;;;;4206771;28;20407;-60
2022/09/16 10:36:58;;;;;;;;;;;27.10;98.70;;;;;;4211269;28;20535;-61
2022/09/16 10:39:23;;;;;;;;;;;27.00;99.30;;;;;;4205721;28;19978;-61
2022/09/16 10:41:46;;;;;;;;;;;26.80;99.70;;;;;;4212652;28;20043;-61
2022/09/16 10:44:30;;;;;;;;;;;26.70;99.90;;;;;;4211629;28;19993;-61
2022/09/16 10:47:04;;;;;;;;;;;26.70;99.90;;;;;;4199260;28;19935;-60
2022/09/16 10:49:28;;;;;;;;;;;26.50;99.90;;;;;;4213755;28;19935;-61
2022/09/16 10:51:49;;;;;;;;;;;26.20;99.90;;;;;;4211171;28;19935;-61
2022/09/16 10:54:21;;;;;;;;;;;26.10;99.90;;;;;;4201582;28;20360;-60
2022/09/16 10:56:46;;;;;;;;;;;26.00;99.90;;;;;;4201410;28;19981;-60
2022/09/16 10:59:11;;;;;;;;;;;25.80;99.90;;;;;;4196770;28;20390;-60
2022/09/16 11:01:36;;;;;;;;;;;25.70;99.90;;;;;;4196815;28;19951;-61
2022/09/16 11:03:59;;;;;;;;;;;25.70;99.90;;;;;;4196907;28;19935;-60
2022/09/16 11:06:28;;;;;;;;;;;25.50;99.90;;;;;;4196962;28;20019;-60
2022/09/16 11:08:48;;;;;;;;;;;25.50;99.90;;;;;;4196715;28;19935;-59
2022/09/16 11:11:14;;;;;;;;;;;25.50;99.90;;;;;;4197032;28;19975;-60
2022/09/16 11:13:41;;;;;;;;;;;25.50;99.90;;;;;;4196928;28;19974;-59
2022/09/16 11:16:01;;;;;;;;;;;25.50;99.90;;;;;;4196834;28;19986;-60
2022/09/16 11:18:27;;;;;;;;;;;25.50;99.90;;;;;;4209746;28;20019;-60
2022/09/16 11:20:54;;;;;;;;;;;25.50;99.90;;;;;;4212974;28;20020;-61
2022/09/16 11:23:15;;;;;;;;;;;25.40;99.90;;;;;;4201221;28;19934;-60
2022/09/16 11:25:38;;;;;;;;;;;25.70;99.90;;;;;;4212282;28;19977;-60
2022/09/16 11:28:02;;;;;;;;;;;25.90;99.90;;;;;;4213346;28;19931;-61
2022/09/16 11:30:22;;;;;;;;;;;26.30;99.90;;;;;;4196462;28;19931;-61
2022/09/16 11:32:49;;;;;;;;;;;26.30;99.70;;;;;;4196561;28;20863;-61
2022/09/16 11:35:12;;;;;;;;;;;26.60;98.90;;;;;;4196358;28;19958;-60
2022/09/16 11:37:38;;;;;;;;;;;26.90;99.70;;;;;;4196910;28;19970;-61
2022/09/16 11:40:08;;;;;;;;;;;27.40;99.40;;;;;;4213214;28;19935;-61
2022/09/16 11:42:29;;;;;;;;;;;27.30;96.70;;;;;;4212724;28;19930;-61
2022/09/16 11:44:52;;;;;;;;;;;27.30;97.50;;;;;;4213552;28;20088;-61
2022/09/16 11:47:12;;;;;;;;;;;27.50;96.80;;;;;;4213018;28;19931;-61
2022/09/16 11:49:39;;;;;;;;;;;27.50;97.80;;;;;;4213095;28;20002;-61
2022/09/16 11:52:18;;;;;;;;;;;27.50;97.20;;;;;;4208820;28;19938;-61
2022/09/16 11:54:57;;;;;;;;;;;27.50;97.20;;;;;;4212357;28;19935;-61
2022/09/16 11:57:20;;;;;;;;;;;27.50;95.90;;;;;;4207965;28;20014;-61
2022/09/16 11:59:48;;;;;;;;;;;27.30;96.30;;;;;;4208573;28;19939;-61
2022/09/16 12:02:14;;;;;;;;;;;27.20;96.50;;;;;;4196165;28;19936;-60
2022/09/16 12:04:46;;;;;;;;;;;27.20;96.80;;;;;;4209864;28;19978;-60
2022/09/16 12:07:13;;;;;;;;;;;26.90;96.80;;;;;;4201711;28;20305;-61
2022/09/16 12:09:39;;;;;;;;;;;26.60;97.10;;;;;;4196632;28;20349;-61
2022/09/16 12:12:08;;;;;;;;;;;26.40;96.80;;;;;;4200061;28;20303;-60
2022/09/16 12:14:30;;;;;;;;;;;26.30;96.80;;;;;;4208337;28;19993;-60
2022/09/16 12:16:54;;;;;;;;;;;26.40;97.10;;;;;;4212451;28;19977;-60
2022/09/16 12:19:35;;;;;;;;;;;26.50;97.70;;;;;;4212458;28;19931;-61
2022/09/16 12:22:15;;;;;;;;;;;26.70;97.30;;;;;;4212551;28;20519;-61
2022/09/16 12:24:40;;;;;;;;;;;26.80;97.00;;;;;;4218543;28;20434;-60
2022/09/16 12:27:23;;;;;;;;;;;26.80;96.20;;;;;;4217320;28;19935;-60
2022/09/16 12:29:55;;;;;;;;;;;26.90;96.10;;;;;;4197614;28;19937;-61
2022/09/16 12:32:21;;;;;;;;;;;26.90;96.70;;;;;;4212407;28;20592;-62
2022/09/16 12:34:49;;;;;;;;;;;27.30;96.40;;;;;;4211781;28;19930;-61
2022/09/16 12:37:09;;;;;;;;;;;27.80;96.10;;;;;;4195078;28;19931;-60
2022/09/16 12:39:29;;;;;;;;;;;27.70;95.50;;;;;;4205133;28;19931;-60
2022/09/16 12:42:08;;;;;;;;;;;27.70;95.20;;;;;;4211284;28;19931;-61
2022/09/16 12:44:42;;;;;;;;;;;27.80;94.80;;;;;;4212347;28;19969;-60
2022/09/16 12:47:22;;;;;;;;;;;27.70;95.00;;;;;;4199938;28;19993;-60
2022/09/16 12:50:00;;;;;;;;;;;27.50;94.30;;;;;;4209823;28;20307;-61
2022/09/16 12:52:30;;;;;;;;;;;27.30;94.20;;;;;;4195467;28;19970;-60
2022/09/16 12:55:05;;;;;;;;;;;26.90;94.40;;;;;;4200266;28;20020;-60
2022/09/16 12:57:34;;;;;;;;;;;26.90;94.70;;;;;;4212287;28;19954;-61